sensor_id;sensor_type;location;lat;lon;timestamp;temperature;humidity
38902;DHT22;24661;53.566;9.910;2022-11-20T00:01:22;2.10;99.90
38902;DHT22;24661;53.566;9.910;2022-11-20T00:03:48;2.20;99.90
38902;DHT22;24661;53.566;9.910;2022-11-20T00:06:17;2.10;99.90
38902;DHT22;24661;53.566;9.910;2022-11-20T00:08:43;2.20;99.90
38902;DHT22;24661;53.566;9.910;2022-11-20T00:11:12;2.20;99.90
38902;DHT22;24661;53.566;9.910;2022-11-20T00:13:39;2.20;99.90
38902;DHT22;24661;53.566;9.910;2022-11-20T00:16:07;2.10;99.90
38902;DHT22;24661;53.566;9.910;2022-11-20T00:18:33;2.10;99.90
38902;DHT22;24661;53.566;9.910;2022-11-20T00:21:11;2.10;99.90
38902;DHT22;24661;53.566;9.910;2022-11-20T00:23:38;2.20;99.90
38902;DHT22;24661;53.566;9.910;2022-11-20T00:26:05;2.20;99.90
38902;DHT22;24661;53.566;9.910;2022-11-20T00:28:32;2.20;99.90
38902;DHT22;24661;53.566;9.910;2022-11-20T00:31:12;2.20;99.90
38902;DHT22;24661;53.566;9.910;2022-11-20T00:33:38;2.20;99.90
38902;DHT22;24661;53.566;9.910;2022-11-20T00:36:06;2.20;99.90
38902;DHT22;24661;53.566;9.910;2022-11-20T00:38:32;2.10;99.90
38902;DHT22;24661;53.566;9.910;2022-11-20T00:41:01;2.10;99.90
38902;DHT22;24661;53.566;9.910;2022-11-20T00:43:27;2.10;99.90
38902;DHT22;24661;53.566;9.910;2022-11-20T00:46:00;2.20;99.90
38902;DHT22;24661;53.566;9.910;2022-11-20T00:48:27;2.10;99.90
38902;DHT22;24661;53.566;9.910;2022-11-20T00:50:53;2.10;99.90
38902;DHT22;24661;53.566;9.910;2022-11-20T00:53:19;1.90;99.90
38902;DHT22;24661;53.566;9.910;2022-11-20T00:55:56;2.10;99.90
38902;DHT22;24661;53.566;9.910;2022-11-20T00:58:23;2.00;99.90
38902;DHT22;24661;53.566;9.910;2022-11-20T01:00:50;2.50;99.90
38902;DHT22;24661;53.566;9.910;2022-11-20T01:03:17;2.10;99.90
38902;DHT22;24661;53.566;9.910;2022-11-20T01:05:45;2.10;99.90
38902;DHT22;24661;53.566;9.910;2022-11-20T01:08:11;2.00;99.90
38902;DHT22;24661;53.566;9.910;2022-11-20T01:10:37;2.00;99.90
38902;DHT22;24661;53.566;9.910;2022-11-20T01:13:02;2.00;99.90
38902;DHT22;24661;53.566;9.910;2022-11-20T01:15:47;2.10;99.90
38902;DHT22;24661;53.566;9.910;2022-11-20T01:18:12;2.10;99.90
38902;DHT22;24661;53.566;9.910;2022-11-20T01:20:38;2.10;99.90
38902;DHT22;24661;53.566;9.910;2022-11-20T01:23:04;2.80;99.90
38902;DHT22;24661;53.566;9.910;2022-11-20T01:25:30;2.00;99.90
38902;DHT22;24661;53.566;9.910;2022-11-20T01:27:59;2.10;99.90
38902;DHT22;24661;53.566;9.910;2022-11-20T01:30:25;2.10;99.90
38902;DHT22;24661;53.566;9.910;2022-11-20T01:32:50;2.00;99.90
38902;DHT22;24661;53.566;9.910;2022-11-20T01:35:20;2.10;99.90
38902;DHT22;24661;53.566;9.910;2022-11-20T01:37:50;2.20;99.90
38902;DHT22;24661;53.566;9.910;2022-11-20T01:40:15;2.20;99.90
38902;DHT22;24661;53.566;9.910;2022-11-20T01:42:47;2.20;99.90
38902;DHT22;24661;53.566;9.910;2022-11-20T01:46:01;2.20;99.90
38902;DHT22;24661;53.566;9.910;2022-11-20T01:48:37;2.20;99.90
38902;DHT22;24661;53.566;9.910;2022-11-20T01:51:05;2.20;99.90
38902;DHT22;24661;53.566;9.910;2022-11-20T01:53:34;2.30;99.90
38902;DHT22;24661;53.566;9.910;2022-11-20T01:56:04;2.20;99.90
38902;DHT22;24661;53.566;9.910;2022-11-20T01:58:35;2.20;99.90
38902;DHT22;24661;53.566;9.910;2022-11-20T02:01:02;2.20;99.90
38902;DHT22;24661;53.566;9.910;2022-11-20T02:03:28;2.90;99.90
38902;DHT22;24661;53.566;9.910;2022-11-20T02:08:31;2.10;99.90
38902;DHT22;24661;53.566;9.910;2022-11-20T02:10:57;2.10;99.90
38902;DHT22;24661;53.566;9.910;2022-11-20T02:13:23;2.20;99.90
38902;DHT22;24661;53.566;9.910;2022-11-20T02:18:45;2.20;99.90
38902;DHT22;24661;53.566;9.910;2022-11-20T02:21:34;2.30;99.90
38902;DHT22;24661;53.566;9.910;2022-11-20T02:26:28;2.10;99.90
38902;DHT22;24661;53.566;9.910;2022-11-20T02:28:55;2.10;99.90
38902;DHT22;24661;53.566;9.910;2022-11-20T02:31:22;2.10;99.90
38902;DHT22;24661;53.566;9.910;2022-11-20T02:33:47;2.10;99.90
38902;DHT22;24661;53.566;9.910;2022-11-20T02:36:19;2.10;99.90
38902;DHT22;24661;53.566;9.910;2022-11-20T02:38:45;2.10;99.90
38902;DHT22;24661;53.566;9.910;2022-11-20T02:41:10;2.10;99.90
38902;DHT22;24661;53.566;9.910;2022-11-20T02:43:36;2.10;99.90
38902;DHT22;24661;53.566;9.910;2022-11-20T02:46:02;2.10;99.90
38902;DHT22;24661;53.566;9.910;2022-11-20T02:48:27;3.40;99.90
38902;DHT22;24661;53.566;9.910;2022-11-20T02:50:53;2.20;99.90
38902;DHT22;24661;53.566;9.910;2022-11-20T02:53:18;2.20;99.90
38902;DHT22;24661;53.566;9.910;2022-11-20T02:55:44;2.10;99.90
38902;DHT22;24661;53.566;9.910;2022-11-20T02:58:10;2.20;99.90
38902;DHT22;24661;53.566;9.910;2022-11-20T03:00:36;2.20;99.90
38902;DHT22;24661;53.566;9.910;2022-11-20T03:03:01;2.20;99.90
38902;DHT22;24661;53.566;9.910;2022-11-20T03:05:27;2.20;99.90
38902;DHT22;24661;53.566;9.910;2022-11-20T03:07:53;2.20;99.90
38902;DHT22;24661;53.566;9.910;2022-11-20T03:10:18;2.10;99.90
38902;DHT22;24661;53.566;9.910;2022-11-20T03:12:44;3.50;99.90
38902;DHT22;24661;53.566;9.910;2022-11-20T03:15:11;2.10;99.90
38902;DHT22;24661;53.566;9.910;2022-11-20T03:17:37;2.10;99.90
38902;DHT22;24661;53.566;9.910;2022-11-20T03:20:03;2.10;99.90
38902;DHT22;24661;53.566;9.910;2022-11-20T03:22:29;2.10;99.90
38902;DHT22;24661;53.566;9.910;2022-11-20T03:24:55;2.10;99.90
38902;DHT22;24661;53.566;9.910;2022-11-20T03:27:20;2.10;99.90
38902;DHT22;24661;53.566;9.910;2022-11-20T03:29:46;2.10;99.90
38902;DHT22;24661;53.566;9.910;2022-11-20T03:32:12;2.10;99.90
38902;DHT22;24661;53.566;9.910;2022-11-20T03:34:37;2.10;99.90
38902;DHT22;24661;53.566;9.910;2022-11-20T03:37:03;2.10;99.90
38902;DHT22;24661;53.566;9.910;2022-11-20T03:39:28;2.10;99.90
38902;DHT22;24661;53.566;9.910;2022-11-20T03:41:54;2.00;99.90
38902;DHT22;24661;53.566;9.910;2022-11-20T03:44:21;2.00;99.90
38902;DHT22;24661;53.566;9.910;2022-11-20T03:46:47;2.00;99.90
38902;DHT22;24661;53.566;9.910;2022-11-20T03:49:12;2.00;99.90
38902;DHT22;24661;53.566;9.910;2022-11-20T03:51:38;2.00;99.90
38902;DHT22;24661;53.566;9.910;2022-11-20T03:54:06;2.00;99.90
38902;DHT22;24661;53.566;9.910;2022-11-20T03:56:34;2.00;99.90
38902;DHT22;24661;53.566;9.910;2022-11-20T03:59:00;2.00;99.90
38902;DHT22;24661;53.566;9.910;2022-11-20T04:01:28;2.00;99.90
38902;DHT22;24661;53.566;9.910;2022-11-20T04:03:55;2.00;99.90
38902;DHT22;24661;53.566;9.910;2022-11-20T04:06:23;2.00;99.90
38902;DHT22;24661;53.566;9.910;2022-11-20T04:08:49;2.00;99.90
38902;DHT22;24661;53.566;9.910;2022-11-20T04:11:21;2.00;99.90
38902;DHT22;24661;53.566;9.910;2022-11-20T04:13:52;2.00;99.90
38902;DHT22;24661;53.566;9.910;2022-11-20T04:16:18;2.00;99.90
38902;DHT22;24661;53.566;9.910;2022-11-20T04:18:44;2.00;99.90
38902;DHT22;24661;53.566;9.910;2022-11-20T04:21:10;1.90;99.90
38902;DHT22;24661;53.566;9.910;2022-11-20T04:23:36;1.90;99.90
38902;DHT22;24661;53.566;9.910;2022-11-20T04:26:10;1.90;99.90
38902;DHT22;24661;53.566;9.910;2022-11-20T04:28:37;1.90;99.90
38902;DHT22;24661;53.566;9.910;2022-11-20T04:31:08;1.90;99.90
38902;DHT22;24661;53.566;9.910;2022-11-20T04:33:34;1.80;99.90
38902;DHT22;24661;53.566;9.910;2022-11-20T04:36:11;1.80;99.90
38902;DHT22;24661;53.566;9.910;2022-11-20T04:38:38;1.90;99.90
38902;DHT22;24661;53.566;9.910;2022-11-20T04:41:06;1.90;99.90
38902;DHT22;24661;53.566;9.910;2022-11-20T04:43:32;1.90;99.90
38902;DHT22;24661;53.566;9.910;2022-11-20T04:45:59;1.90;99.90
38902;DHT22;24661;53.566;9.910;2022-11-20T04:48:26;1.90;99.90
38902;DHT22;24661;53.566;9.910;2022-11-20T04:50:53;1.90;99.90
38902;DHT22;24661;53.566;9.910;2022-11-20T04:53:19;1.90;99.90
38902;DHT22;24661;53.566;9.910;2022-11-20T04:55:45;1.80;99.90
38902;DHT22;24661;53.566;9.910;2022-11-20T04:58:11;1.80;99.90
38902;DHT22;24661;53.566;9.910;2022-11-20T05:00:37;1.80;99.90
38902;DHT22;24661;53.566;9.910;2022-11-20T05:03:03;1.80;99.90
38902;DHT22;24661;53.566;9.910;2022-11-20T05:05:29;1.80;99.90
38902;DHT22;24661;53.566;9.910;2022-11-20T05:07:58;1.70;99.90
38902;DHT22;24661;53.566;9.910;2022-11-20T05:10:27;1.80;99.90
38902;DHT22;24661;53.566;9.910;2022-11-20T05:12:53;1.70;99.90
38902;DHT22;24661;53.566;9.910;2022-11-20T05:15:19;1.70;99.90
38902;DHT22;24661;53.566;9.910;2022-11-20T05:17:51;1.70;99.90
38902;DHT22;24661;53.566;9.910;2022-11-20T05:20:17;1.60;99.90
38902;DHT22;24661;53.566;9.910;2022-11-20T05:22:43;1.60;99.90
38902;DHT22;24661;53.566;9.910;2022-11-20T05:25:09;1.60;99.90
38902;DHT22;24661;53.566;9.910;2022-11-20T05:27:35;1.60;99.90
38902;DHT22;24661;53.566;9.910;2022-11-20T05:30:02;1.60;99.90
38902;DHT22;24661;53.566;9.910;2022-11-20T05:32:27;1.60;99.90
38902;DHT22;24661;53.566;9.910;2022-11-20T05:34:53;1.60;99.90
38902;DHT22;24661;53.566;9.910;2022-11-20T05:37:18;1.60;99.90
38902;DHT22;24661;53.566;9.910;2022-11-20T05:39:44;1.60;99.90
38902;DHT22;24661;53.566;9.910;2022-11-20T05:42:10;1.60;99.90
38902;DHT22;24661;53.566;9.910;2022-11-20T05:44:54;1.60;99.90
38902;DHT22;24661;53.566;9.910;2022-11-20T05:47:20;1.60;99.90
38902;DHT22;24661;53.566;9.910;2022-11-20T05:49:45;1.60;99.90
38902;DHT22;24661;53.566;9.910;2022-11-20T05:52:11;1.60;99.90
38902;DHT22;24661;53.566;9.910;2022-11-20T05:54:36;1.70;99.90
38902;DHT22;24661;53.566;9.910;2022-11-20T05:57:02;1.70;99.90
38902;DHT22;24661;53.566;9.910;2022-11-20T05:59:28;1.70;99.90
38902;DHT22;24661;53.566;9.910;2022-11-20T06:01:53;1.70;99.90
38902;DHT22;24661;53.566;9.910;2022-11-20T06:04:19;1.60;99.90
38902;DHT22;24661;53.566;9.910;2022-11-20T06:06:44;1.60;99.90
38902;DHT22;24661;53.566;9.910;2022-11-20T06:09:11;1.60;99.90
38902;DHT22;24661;53.566;9.910;2022-11-20T06:11:37;1.60;99.90
38902;DHT22;24661;53.566;9.910;2022-11-20T06:14:02;1.60;99.90
38902;DHT22;24661;53.566;9.910;2022-11-20T06:16:28;1.60;99.90
38902;DHT22;24661;53.566;9.910;2022-11-20T06:18:53;1.60;99.90
38902;DHT22;24661;53.566;9.910;2022-11-20T06:21:21;2.60;99.90
38902;DHT22;24661;53.566;9.910;2022-11-20T06:23:47;1.60;99.90
38902;DHT22;24661;53.566;9.910;2022-11-20T06:26:24;1.70;99.90
38902;DHT22;24661;53.566;9.910;2022-11-20T06:28:52;1.70;99.90
38902;DHT22;24661;53.566;9.910;2022-11-20T06:31:21;1.70;99.90
38902;DHT22;24661;53.566;9.910;2022-11-20T06:33:47;1.70;99.90
38902;DHT22;24661;53.566;9.910;2022-11-20T06:36:15;1.70;99.90
38902;DHT22;24661;53.566;9.910;2022-11-20T06:38:41;1.70;99.90
38902;DHT22;24661;53.566;9.910;2022-11-20T06:41:12;1.80;99.90
38902;DHT22;24661;53.566;9.910;2022-11-20T06:43:38;1.80;99.90
38902;DHT22;24661;53.566;9.910;2022-11-20T06:46:03;1.80;99.90
38902;DHT22;24661;53.566;9.910;2022-11-20T06:48:29;1.90;99.90
38902;DHT22;24661;53.566;9.910;2022-11-20T06:50:56;1.80;99.90
38902;DHT22;24661;53.566;9.910;2022-11-20T06:53:22;1.80;99.90
38902;DHT22;24661;53.566;9.910;2022-11-20T06:55:49;1.70;99.90
38902;DHT22;24661;53.566;9.910;2022-11-20T06:58:15;1.70;99.90
38902;DHT22;24661;53.566;9.910;2022-11-20T07:00:41;1.70;99.90
38902;DHT22;24661;53.566;9.910;2022-11-20T07:03:09;1.70;99.90
38902;DHT22;24661;53.566;9.910;2022-11-20T07:05:35;2.30;99.90
38902;DHT22;24661;53.566;9.910;2022-11-20T07:08:02;1.70;99.90
38902;DHT22;24661;53.566;9.910;2022-11-20T07:10:29;1.70;99.90
38902;DHT22;24661;53.566;9.910;2022-11-20T07:12:54;1.70;99.90
38902;DHT22;24661;53.566;9.910;2022-11-20T07:15:21;1.70;99.90
38902;DHT22;24661;53.566;9.910;2022-11-20T07:17:47;1.70;99.90
38902;DHT22;24661;53.566;9.910;2022-11-20T07:20:14;1.60;99.90
38902;DHT22;24661;53.566;9.910;2022-11-20T07:22:40;1.60;99.90
38902;DHT22;24661;53.566;9.910;2022-11-20T07:25:06;1.60;99.90
38902;DHT22;24661;53.566;9.910;2022-11-20T07:27:32;1.60;99.90
38902;DHT22;24661;53.566;9.910;2022-11-20T07:29:57;1.60;99.90
38902;DHT22;24661;53.566;9.910;2022-11-20T07:32:23;1.60;99.90
38902;DHT22;24661;53.566;9.910;2022-11-20T07:34:49;1.50;99.90
38902;DHT22;24661;53.566;9.910;2022-11-20T07:37:16;1.50;99.90
38902;DHT22;24661;53.566;9.910;2022-11-20T07:39:42;1.40;99.90
38902;DHT22;24661;53.566;9.910;2022-11-20T07:42:08;1.60;99.90
38902;DHT22;24661;53.566;9.910;2022-11-20T07:44:34;1.60;99.90
38902;DHT22;24661;53.566;9.910;2022-11-20T07:47:00;1.70;99.90
38902;DHT22;24661;53.566;9.910;2022-11-20T07:49:25;1.70;99.90
38902;DHT22;24661;53.566;9.910;2022-11-20T07:51:51;1.70;99.90
38902;DHT22;24661;53.566;9.910;2022-11-20T07:54:20;1.80;99.90
38902;DHT22;24661;53.566;9.910;2022-11-20T07:56:46;1.80;99.90
38902;DHT22;24661;53.566;9.910;2022-11-20T07:59:13;1.80;99.90
38902;DHT22;24661;53.566;9.910;2022-11-20T08:01:39;1.90;99.90
38902;DHT22;24661;53.566;9.910;2022-11-20T08:04:05;1.80;99.90
38902;DHT22;24661;53.566;9.910;2022-11-20T08:06:31;1.80;99.90
38902;DHT22;24661;53.566;9.910;2022-11-20T08:08:57;1.70;99.90
38902;DHT22;24661;53.566;9.910;2022-11-20T08:11:23;1.70;99.90
38902;DHT22;24661;53.566;9.910;2022-11-20T08:14:07;1.70;99.90
38902;DHT22;24661;53.566;9.910;2022-11-20T08:16:41;0.90;99.90
38902;DHT22;24661;53.566;9.910;2022-11-20T08:19:07;1.80;99.90
38902;DHT22;24661;53.566;9.910;2022-11-20T08:21:33;1.80;99.90
38902;DHT22;24661;53.566;9.910;2022-11-20T08:23:59;1.90;99.90
38902;DHT22;24661;53.566;9.910;2022-11-20T08:26:25;1.90;99.90
38902;DHT22;24661;53.566;9.910;2022-11-20T08:28:55;0.90;99.90
38902;DHT22;24661;53.566;9.910;2022-11-20T08:31:27;1.90;99.90
38902;DHT22;24661;53.566;9.910;2022-11-20T08:33:53;1.90;99.90
38902;DHT22;24661;53.566;9.910;2022-11-20T08:36:20;3.40;99.90
38902;DHT22;24661;53.566;9.910;2022-11-20T08:38:50;1.90;99.90
38902;DHT22;24661;53.566;9.910;2022-11-20T08:41:16;1.90;99.90
38902;DHT22;24661;53.566;9.910;2022-11-20T08:44:02;1.90;99.90
38902;DHT22;24661;53.566;9.910;2022-11-20T08:46:39;2.00;99.90
38902;DHT22;24661;53.566;9.910;2022-11-20T08:49:08;1.90;99.90
38902;DHT22;24661;53.566;9.910;2022-11-20T08:51:34;2.00;99.90
38902;DHT22;24661;53.566;9.910;2022-11-20T08:54:00;2.00;99.90
38902;DHT22;24661;53.566;9.910;2022-11-20T08:56:26;1.90;99.90
38902;DHT22;24661;53.566;9.910;2022-11-20T08:58:51;2.00;99.90
38902;DHT22;24661;53.566;9.910;2022-11-20T09:01:19;2.00;99.90
38902;DHT22;24661;53.566;9.910;2022-11-20T09:03:45;2.10;99.90
38902;DHT22;24661;53.566;9.910;2022-11-20T09:06:11;2.10;99.90
38902;DHT22;24661;53.566;9.910;2022-11-20T09:08:37;2.20;99.90
38902;DHT22;24661;53.566;9.910;2022-11-20T09:11:03;2.30;99.90
38902;DHT22;24661;53.566;9.910;2022-11-20T09:13:31;2.40;99.90
38902;DHT22;24661;53.566;9.910;2022-11-20T09:16:01;2.40;99.90
38902;DHT22;24661;53.566;9.910;2022-11-20T09:18:27;2.40;99.90
38902;DHT22;24661;53.566;9.910;2022-11-20T09:21:00;2.50;99.90
38902;DHT22;24661;53.566;9.910;2022-11-20T09:23:26;2.40;99.90
38902;DHT22;24661;53.566;9.910;2022-11-20T09:25:52;2.40;99.90
38902;DHT22;24661;53.566;9.910;2022-11-20T09:28:20;2.50;99.90
38902;DHT22;24661;53.566;9.910;2022-11-20T09:30:46;2.60;99.90
38902;DHT22;24661;53.566;9.910;2022-11-20T09:33:11;2.60;99.90
38902;DHT22;24661;53.566;9.910;2022-11-20T09:35:37;2.60;99.90
38902;DHT22;24661;53.566;9.910;2022-11-20T09:38:11;2.50;99.90
38902;DHT22;24661;53.566;9.910;2022-11-20T09:40:45;2.50;99.90
38902;DHT22;24661;53.566;9.910;2022-11-20T09:43:38;2.40;99.90
38902;DHT22;24661;53.566;9.910;2022-11-20T09:46:20;2.30;99.90
38902;DHT22;24661;53.566;9.910;2022-11-20T09:49:03;2.20;99.90
38902;DHT22;24661;53.566;9.910;2022-11-20T09:54:21;2.10;99.90
38902;DHT22;24661;53.566;9.910;2022-11-20T09:57:00;2.50;99.90
38902;DHT22;24661;53.566;9.910;2022-11-20T09:59:42;2.40;99.90
38902;DHT22;24661;53.566;9.910;2022-11-20T10:07:36;3.10;99.90
38902;DHT22;24661;53.566;9.910;2022-11-20T10:10:03;3.20;99.90
38902;DHT22;24661;53.566;9.910;2022-11-20T10:12:57;3.00;99.90
38902;DHT22;24661;53.566;9.910;2022-11-20T10:15:33;3.00;99.90
38902;DHT22;24661;53.566;9.910;2022-11-20T10:18:06;2.90;99.90
38902;DHT22;24661;53.566;9.910;2022-11-20T10:26:37;3.00;99.90
38902;DHT22;24661;53.566;9.910;2022-11-20T10:29:13;3.10;99.90
38902;DHT22;24661;53.566;9.910;2022-11-20T10:31:45;3.30;99.90
38902;DHT22;24661;53.566;9.910;2022-11-20T10:34:20;3.20;99.90
38902;DHT22;24661;53.566;9.910;2022-11-20T10:36:52;3.20;99.90
38902;DHT22;24661;53.566;9.910;2022-11-20T10:39:24;3.30;99.90
38902;DHT22;24661;53.566;9.910;2022-11-20T10:41:52;3.30;99.90
38902;DHT22;24661;53.566;9.910;2022-11-20T10:44:28;3.30;99.90
38902;DHT22;24661;53.566;9.910;2022-11-20T10:47:17;3.30;99.90
38902;DHT22;24661;53.566;9.910;2022-11-20T10:49:45;3.30;99.90
38902;DHT22;24661;53.566;9.910;2022-11-20T10:52:52;3.30;99.90
38902;DHT22;24661;53.566;9.910;2022-11-20T10:55:39;3.40;99.90
38902;DHT22;24661;53.566;9.910;2022-11-20T10:58:24;3.40;99.90
38902;DHT22;24661;53.566;9.910;2022-11-20T11:00:51;3.30;99.90
38902;DHT22;24661;53.566;9.910;2022-11-20T11:03:27;3.40;99.90
38902;DHT22;24661;53.566;9.910;2022-11-20T11:08:34;3.50;99.90
38902;DHT22;24661;53.566;9.910;2022-11-20T11:13:42;3.40;99.90
38902;DHT22;24661;53.566;9.910;2022-11-20T11:16:23;3.50;99.90
38902;DHT22;24661;53.566;9.910;2022-11-20T11:18:49;3.30;99.90
38902;DHT22;24661;53.566;9.910;2022-11-20T11:21:25;3.40;99.90
38902;DHT22;24661;53.566;9.910;2022-11-20T11:24:03;3.50;99.90
38902;DHT22;24661;53.566;9.910;2022-11-20T11:26:29;3.30;99.90
38902;DHT22;24661;53.566;9.910;2022-11-20T11:29:00;3.40;99.90
38902;DHT22;24661;53.566;9.910;2022-11-20T11:34:15;3.20;99.90
38902;DHT22;24661;53.566;9.910;2022-11-20T11:36:42;1.60;99.90
38902;DHT22;24661;53.566;9.910;2022-11-20T11:39:16;3.10;99.90
38902;DHT22;24661;53.566;9.910;2022-11-20T11:41:42;3.10;99.90
38902;DHT22;24661;53.566;9.910;2022-11-20T11:44:20;3.00;99.90
38902;DHT22;24661;53.566;9.910;2022-11-20T11:47:10;3.00;99.90
38902;DHT22;24661;53.566;9.910;2022-11-20T11:49:36;3.00;99.90
38902;DHT22;24661;53.566;9.910;2022-11-20T11:52:09;3.00;99.90
38902;DHT22;24661;53.566;9.910;2022-11-20T11:54:58;2.40;99.90
38902;DHT22;24661;53.566;9.910;2022-11-20T11:57:32;2.90;99.90
38902;DHT22;24661;53.566;9.910;2022-11-20T12:00:09;2.90;99.90
38902;DHT22;24661;53.566;9.910;2022-11-20T12:05:23;3.00;99.90
38902;DHT22;24661;53.566;9.910;2022-11-20T12:16:00;3.10;99.90
38902;DHT22;24661;53.566;9.910;2022-11-20T12:18:27;3.20;99.90
38902;DHT22;24661;53.566;9.910;2022-11-20T12:21:09;3.10;99.90
38902;DHT22;24661;53.566;9.910;2022-11-20T12:24:00;3.20;99.90
38902;DHT22;24661;53.566;9.910;2022-11-20T12:30:04;1.90;99.90
38902;DHT22;24661;53.566;9.910;2022-11-20T12:33:08;3.40;99.90
38902;DHT22;24661;53.566;9.910;2022-11-20T12:43:30;3.50;99.90
38902;DHT22;24661;53.566;9.910;2022-11-20T12:54:31;3.30;99.90
38902;DHT22;24661;53.566;9.910;2022-11-20T13:00:07;3.30;99.90
38902;DHT22;24661;53.566;9.910;2022-11-20T13:03:05;3.30;99.90
38902;DHT22;24661;53.566;9.910;2022-11-20T13:06:04;3.30;99.90
38902;DHT22;24661;53.566;9.910;2022-11-20T13:08:36;3.20;99.90
38902;DHT22;24661;53.566;9.910;2022-11-20T13:19:23;3.30;99.90
38902;DHT22;24661;53.566;9.910;2022-11-20T13:21:50;3.30;99.90
38902;DHT22;24661;53.566;9.910;2022-11-20T13:26:45;3.50;99.90
38902;DHT22;24661;53.566;9.910;2022-11-20T13:29:18;3.50;99.90
38902;DHT22;24661;53.566;9.910;2022-11-20T13:31:46;3.60;99.90
38902;DHT22;24661;53.566;9.910;2022-11-20T13:34:26;3.60;99.90
38902;DHT22;24661;53.566;9.910;2022-11-20T13:36:55;3.60;99.90
38902;DHT22;24661;53.566;9.910;2022-11-20T13:39:33;3.70;99.90
38902;DHT22;24661;53.566;9.910;2022-11-20T13:44:44;3.70;99.90
38902;DHT22;24661;53.566;9.910;2022-11-20T13:47:24;3.70;99.90
38902;DHT22;24661;53.566;9.910;2022-11-20T13:49:52;3.70;99.90
38902;DHT22;24661;53.566;9.910;2022-11-20T13:53:01;3.70;99.90
38902;DHT22;24661;53.566;9.910;2022-11-20T13:59:29;3.70;99.90
38902;DHT22;24661;53.566;9.910;2022-11-20T14:01:29;3.70;99.90
38902;DHT22;24661;53.566;9.910;2022-11-20T14:03:57;3.60;99.90
38902;DHT22;24661;53.566;9.910;2022-11-20T14:06:28;3.60;99.90
38902;DHT22;24661;53.566;9.910;2022-11-20T14:08:55;3.60;99.90
38902;DHT22;24661;53.566;9.910;2022-11-20T14:11:27;3.60;99.90
38902;DHT22;24661;53.566;9.910;2022-11-20T14:14:17;3.60;99.90
38902;DHT22;24661;53.566;9.910;2022-11-20T14:16:47;3.70;99.90
38902;DHT22;24661;53.566;9.910;2022-11-20T14:19:25;3.70;99.90
38902;DHT22;24661;53.566;9.910;2022-11-20T14:21:54;3.90;99.90
38902;DHT22;24661;53.566;9.910;2022-11-20T14:24:22;3.70;99.90
38902;DHT22;24661;53.566;9.910;2022-11-20T14:26:49;3.60;99.90
38902;DHT22;24661;53.566;9.910;2022-11-20T14:29:27;3.50;99.90
38902;DHT22;24661;53.566;9.910;2022-11-20T14:31:54;3.60;99.90
38902;DHT22;24661;53.566;9.910;2022-11-20T14:34:30;3.50;99.90
38902;DHT22;24661;53.566;9.910;2022-11-20T14:37:04;3.50;99.90
38902;DHT22;24661;53.566;9.910;2022-11-20T14:39:41;3.60;99.90
38902;DHT22;24661;53.566;9.910;2022-11-20T14:42:15;3.40;99.90
38902;DHT22;24661;53.566;9.910;2022-11-20T14:44:42;3.40;99.90
38902;DHT22;24661;53.566;9.910;2022-11-20T14:47:12;3.30;99.90
38902;DHT22;24661;53.566;9.910;2022-11-20T14:49:38;3.20;99.90
38902;DHT22;24661;53.566;9.910;2022-11-20T14:52:16;3.20;99.90
38902;DHT22;24661;53.566;9.910;2022-11-20T14:54:53;3.20;99.90
38902;DHT22;24661;53.566;9.910;2022-11-20T14:57:31;3.20;99.90
38902;DHT22;24661;53.566;9.910;2022-11-20T15:00:19;3.20;99.90
38902;DHT22;24661;53.566;9.910;2022-11-20T15:02:48;3.20;99.90
38902;DHT22;24661;53.566;9.910;2022-11-20T15:05:15;3.20;99.90
38902;DHT22;24661;53.566;9.910;2022-11-20T15:08:04;3.20;99.90
38902;DHT22;24661;53.566;9.910;2022-11-20T15:10:30;3.20;99.90
38902;DHT22;24661;53.566;9.910;2022-11-20T15:13:03;3.10;99.90
38902;DHT22;24661;53.566;9.910;2022-11-20T15:15:43;3.10;99.90
38902;DHT22;24661;53.566;9.910;2022-11-20T15:18:12;3.00;99.90
38902;DHT22;24661;53.566;9.910;2022-11-20T15:20:41;2.90;99.90
38902;DHT22;24661;53.566;9.910;2022-11-20T15:23:13;2.90;99.90
38902;DHT22;24661;53.566;9.910;2022-11-20T15:25:42;2.90;99.90
38902;DHT22;24661;53.566;9.910;2022-11-20T15:30:42;2.90;99.90
38902;DHT22;24661;53.566;9.910;2022-11-20T15:33:08;2.90;99.90
38902;DHT22;24661;53.566;9.910;2022-11-20T15:35:35;2.90;99.90
38902;DHT22;24661;53.566;9.910;2022-11-20T15:38:01;3.00;99.90
38902;DHT22;24661;53.566;9.910;2022-11-20T15:40:27;4.20;99.90
38902;DHT22;24661;53.566;9.910;2022-11-20T15:42:53;2.90;99.90
38902;DHT22;24661;53.566;9.910;2022-11-20T15:45:30;2.80;99.90
38902;DHT22;24661;53.566;9.910;2022-11-20T15:47:56;2.90;99.90
38902;DHT22;24661;53.566;9.910;2022-11-20T15:50:27;2.90;99.90
38902;DHT22;24661;53.566;9.910;2022-11-20T15:53:01;2.90;99.90
38902;DHT22;24661;53.566;9.910;2022-11-20T15:55:29;2.90;99.90
38902;DHT22;24661;53.566;9.910;2022-11-20T15:57:56;2.90;99.90
38902;DHT22;24661;53.566;9.910;2022-11-20T16:00:22;3.00;99.90
38902;DHT22;24661;53.566;9.910;2022-11-20T16:02:48;2.90;99.90
38902;DHT22;24661;53.566;9.910;2022-11-20T16:05:15;3.90;99.90
38902;DHT22;24661;53.566;9.910;2022-11-20T16:07:41;4.70;99.90
38902;DHT22;24661;53.566;9.910;2022-11-20T16:10:08;3.00;99.90
38902;DHT22;24661;53.566;9.910;2022-11-20T16:12:34;3.00;99.90
38902;DHT22;24661;53.566;9.910;2022-11-20T16:15:19;3.10;99.90
38902;DHT22;24661;53.566;9.910;2022-11-20T16:18:04;3.00;99.90
38902;DHT22;24661;53.566;9.910;2022-11-20T16:20:31;3.00;99.90
38902;DHT22;24661;53.566;9.910;2022-11-20T16:22:59;3.00;99.90
38902;DHT22;24661;53.566;9.910;2022-11-20T16:25:27;3.00;99.90
38902;DHT22;24661;53.566;9.910;2022-11-20T16:27:53;3.00;99.90
38902;DHT22;24661;53.566;9.910;2022-11-20T16:30:19;3.00;99.90
38902;DHT22;24661;53.566;9.910;2022-11-20T16:32:45;3.00;99.90
38902;DHT22;24661;53.566;9.910;2022-11-20T16:35:11;3.00;99.90
38902;DHT22;24661;53.566;9.910;2022-11-20T16:37:41;3.00;99.90
38902;DHT22;24661;53.566;9.910;2022-11-20T16:40:10;2.90;99.90
38902;DHT22;24661;53.566;9.910;2022-11-20T16:42:39;2.90;99.90
38902;DHT22;24661;53.566;9.910;2022-11-20T16:45:05;2.80;99.90
38902;DHT22;24661;53.566;9.910;2022-11-20T16:47:34;2.80;99.90
38902;DHT22;24661;53.566;9.910;2022-11-20T16:50:03;2.80;99.90
38902;DHT22;24661;53.566;9.910;2022-11-20T16:52:38;2.80;99.90
38902;DHT22;24661;53.566;9.910;2022-11-20T16:55:04;3.30;99.90
38902;DHT22;24661;53.566;9.910;2022-11-20T16:57:32;2.80;99.90
38902;DHT22;24661;53.566;9.910;2022-11-20T17:00:03;2.80;99.90
38902;DHT22;24661;53.566;9.910;2022-11-20T17:02:29;2.80;99.90
38902;DHT22;24661;53.566;9.910;2022-11-20T17:04:58;2.80;99.90
38902;DHT22;24661;53.566;9.910;2022-11-20T17:07:23;2.80;99.90
38902;DHT22;24661;53.566;9.910;2022-11-20T17:09:51;2.90;99.90
38902;DHT22;24661;53.566;9.910;2022-11-20T17:12:17;2.80;99.90
38902;DHT22;24661;53.566;9.910;2022-11-20T17:14:44;2.80;99.90
38902;DHT22;24661;53.566;9.910;2022-11-20T17:17:10;2.80;99.90
38902;DHT22;24661;53.566;9.910;2022-11-20T17:19:35;2.80;99.90
38902;DHT22;24661;53.566;9.910;2022-11-20T17:22:04;2.80;99.90
38902;DHT22;24661;53.566;9.910;2022-11-20T17:24:30;2.70;99.90